Fume Blanc Commodore — WDD5259 — position and weather

sailwx.info

Track history (hours):
 
Tides and Currents Weather Stations Pressure Air Temp Water Temp Dewpoint Dewpoint Depression Visibility Wind Speed Wind Dir Waves Ship Positions

Fume Blanc Commodore

Owner: Commodore Dining Cruises, Alameda, CA. More information available from US FCC via Universal Licensing System and Coast Guard Vessel Documentation Center.

Last reported at 2017-Oct-22 05:52 UTC. Time now 2017-Oct-22 17:20 UTC.
Position N 37°48' W 122°17'.

Length 26 m; draft 1.5 m.

Type: Passenger vessel. MMSI: 367155780.

Date/timePositionNaut miles runAvg speedWind from/ knotsBaromVisibWave heightAir tempDewpointWater temp
2017-Oct-22 05:52N 37°48' W 122°17'1 2.0
2017-Oct-22 05:31N 37°48' W 122°18'3 6.2
2017-Oct-22 05:01N 37°48' W 122°21'2 4.2
2017-Oct-22 04:30N 37°47' W 122°23'2 4.3
2017-Oct-22 04:01N 37°49' W 122°24'0 1.0
2017-Oct-22 03:31N 37°48' W 122°24'3 5.8
2017-Oct-22 03:01N 37°48' W 122°20'3 5.6
2017-Oct-22 02:30N 37°47' W 122°17'0 0.0
2017-Oct-22 02:00N 37°47' W 122°17'0 0.0
2017-Oct-22 01:31N 37°47' W 122°17'0 0.0
2017-Oct-21 21:07N 37°47' W 122°17'0 0.0
2017-Oct-21 21:00N 37°47' W 122°17'  
Track history (hours):
 
Tides and Currents Weather Stations Pressure Air Temp Water Temp Dewpoint Dewpoint Depression Visibility Wind Speed Wind Dir Waves Ship Positions

Fume Blanc Commodore

Owner: Commodore Dining Cruises, Alameda, CA. More information available from US FCC via Universal Licensing System and Coast Guard Vessel Documentation Center.

Last reported at 2017-Oct-22 05:52 UTC. Time now 2017-Oct-22 17:20 UTC.
Position N 37°48' W 122°17'.

Length 26 m; draft 1.5 m.

Type: Passenger vessel. MMSI: 367155780.

Date/timePositionNaut miles runAvg speedWind from/ knotsBaromVisibWave heightAir tempDewpointWater temp
2017-Oct-22 05:52N 37°48' W 122°17'1 2.0
2017-Oct-22 05:31N 37°48' W 122°18'3 6.2
2017-Oct-22 05:01N 37°48' W 122°21'2 4.2
2017-Oct-22 04:30N 37°47' W 122°23'2 4.3
2017-Oct-22 04:01N 37°49' W 122°24'0 1.0
2017-Oct-22 03:31N 37°48' W 122°24'3 5.8
2017-Oct-22 03:01N 37°48' W 122°20'3 5.6
2017-Oct-22 02:30N 37°47' W 122°17'0 0.0
2017-Oct-22 02:00N 37°47' W 122°17'0 0.0
2017-Oct-22 01:31N 37°47' W 122°17'0 0.0
2017-Oct-21 21:07N 37°47' W 122°17'0 0.0
2017-Oct-21 21:00N 37°47' W 122°17'  

Dump ship's entire track history